sensor_id;sensor_type;location;lat;lon;timestamp;temperature;humidity
52743;DHT22;55583;53.012;6.556;2023-09-07T00:01:46;19.20;99.90
52743;DHT22;55583;53.012;6.556;2023-09-07T00:04:12;19.20;99.90
52743;DHT22;55583;53.012;6.556;2023-09-07T00:09:18;19.10;99.90
52743;DHT22;55583;53.012;6.556;2023-09-07T00:11:44;19.10;99.90
52743;DHT22;55583;53.012;6.556;2023-09-07T00:14:11;19.10;99.90
52743;DHT22;55583;53.012;6.556;2023-09-07T00:16:36;19.00;99.90
52743;DHT22;55583;53.012;6.556;2023-09-07T00:19:04;19.00;99.90
52743;DHT22;55583;53.012;6.556;2023-09-07T00:21:30;19.00;99.90
52743;DHT22;55583;53.012;6.556;2023-09-07T00:23:56;18.90;99.90
52743;DHT22;55583;53.012;6.556;2023-09-07T00:26:21;18.90;99.90
52743;DHT22;55583;53.012;6.556;2023-09-07T00:28:47;18.90;99.90
52743;DHT22;55583;53.012;6.556;2023-09-07T00:31:13;18.90;99.90
52743;DHT22;55583;53.012;6.556;2023-09-07T00:33:38;18.80;99.90
52743;DHT22;55583;53.012;6.556;2023-09-07T00:36:04;18.80;99.90
52743;DHT22;55583;53.012;6.556;2023-09-07T00:38:30;18.80;99.90
52743;DHT22;55583;53.012;6.556;2023-09-07T00:40:56;18.70;99.90
52743;DHT22;55583;53.012;6.556;2023-09-07T00:43:21;18.70;99.90
52743;DHT22;55583;53.012;6.556;2023-09-07T00:45:47;18.70;99.90
52743;DHT22;55583;53.012;6.556;2023-09-07T00:48:15;18.70;99.90
52743;DHT22;55583;53.012;6.556;2023-09-07T00:50:42;18.60;99.90
52743;DHT22;55583;53.012;6.556;2023-09-07T00:53:08;18.60;99.90
52743;DHT22;55583;53.012;6.556;2023-09-07T00:55:35;18.50;99.90
52743;DHT22;55583;53.012;6.556;2023-09-07T00:58:03;18.60;99.90
52743;DHT22;55583;53.012;6.556;2023-09-07T01:00:29;18.50;99.90
52743;DHT22;55583;53.012;6.556;2023-09-07T01:02:55;18.50;99.90
52743;DHT22;55583;53.012;6.556;2023-09-07T01:09:03;18.40;99.90
52743;DHT22;55583;53.012;6.556;2023-09-07T01:11:36;18.30;99.90
52743;DHT22;55583;53.012;6.556;2023-09-07T01:14:02;18.30;99.90
52743;DHT22;55583;53.012;6.556;2023-09-07T01:16:30;18.30;99.90
52743;DHT22;55583;53.012;6.556;2023-09-07T01:18:56;18.30;99.90
52743;DHT22;55583;53.012;6.556;2023-09-07T01:21:22;18.20;99.90
52743;DHT22;55583;53.012;6.556;2023-09-07T01:23:48;18.20;99.90
52743;DHT22;55583;53.012;6.556;2023-09-07T01:26:15;18.20;99.90
52743;DHT22;55583;53.012;6.556;2023-09-07T01:28:41;18.10;99.90
52743;DHT22;55583;53.012;6.556;2023-09-07T01:31:07;18.10;99.90
52743;DHT22;55583;53.012;6.556;2023-09-07T01:33:33;18.00;99.90
52743;DHT22;55583;53.012;6.556;2023-09-07T01:35:59;18.00;99.90
52743;DHT22;55583;53.012;6.556;2023-09-07T01:38:24;18.00;99.90
52743;DHT22;55583;53.012;6.556;2023-09-07T01:40:50;18.00;99.90
52743;DHT22;55583;53.012;6.556;2023-09-07T01:43:15;17.90;99.90
52743;DHT22;55583;53.012;6.556;2023-09-07T01:45:41;17.80;99.90
52743;DHT22;55583;53.012;6.556;2023-09-07T01:48:11;17.80;99.90
52743;DHT22;55583;53.012;6.556;2023-09-07T01:50:37;17.70;99.90
52743;DHT22;55583;53.012;6.556;2023-09-07T01:53:03;17.70;99.90
52743;DHT22;55583;53.012;6.556;2023-09-07T01:55:30;17.70;99.90
52743;DHT22;55583;53.012;6.556;2023-09-07T01:57:56;17.70;99.90
52743;DHT22;55583;53.012;6.556;2023-09-07T02:00:21;17.60;99.90
52743;DHT22;55583;53.012;6.556;2023-09-07T02:02:47;17.60;99.90
52743;DHT22;55583;53.012;6.556;2023-09-07T02:05:13;17.60;99.90
52743;DHT22;55583;53.012;6.556;2023-09-07T02:07:38;17.50;99.90
52743;DHT22;55583;53.012;6.556;2023-09-07T02:10:04;17.50;99.90
52743;DHT22;55583;53.012;6.556;2023-09-07T02:12:30;17.50;99.90
52743;DHT22;55583;53.012;6.556;2023-09-07T02:14:56;17.50;99.90
52743;DHT22;55583;53.012;6.556;2023-09-07T02:17:21;17.40;99.90
52743;DHT22;55583;53.012;6.556;2023-09-07T02:19:47;17.40;99.90
52743;DHT22;55583;53.012;6.556;2023-09-07T02:22:13;17.40;99.90
52743;DHT22;55583;53.012;6.556;2023-09-07T02:24:39;17.30;99.90
52743;DHT22;55583;53.012;6.556;2023-09-07T02:27:04;17.30;99.90
52743;DHT22;55583;53.012;6.556;2023-09-07T02:29:30;17.30;99.90
52743;DHT22;55583;53.012;6.556;2023-09-07T02:31:56;17.30;99.90
52743;DHT22;55583;53.012;6.556;2023-09-07T02:34:23;17.20;99.90
52743;DHT22;55583;53.012;6.556;2023-09-07T02:36:48;17.20;99.90
52743;DHT22;55583;53.012;6.556;2023-09-07T02:39:14;17.10;99.90
52743;DHT22;55583;53.012;6.556;2023-09-07T02:41:39;17.10;99.90
52743;DHT22;55583;53.012;6.556;2023-09-07T02:44:05;17.10;99.90
52743;DHT22;55583;53.012;6.556;2023-09-07T02:46:31;17.00;99.90
52743;DHT22;55583;53.012;6.556;2023-09-07T02:48:57;17.00;99.90
52743;DHT22;55583;53.012;6.556;2023-09-07T02:51:24;17.00;99.90
52743;DHT22;55583;53.012;6.556;2023-09-07T02:53:50;17.00;99.90
52743;DHT22;55583;53.012;6.556;2023-09-07T02:56:16;17.00;99.90
52743;DHT22;55583;53.012;6.556;2023-09-07T02:58:41;16.90;99.90
52743;DHT22;55583;53.012;6.556;2023-09-07T03:01:07;16.90;99.90
52743;DHT22;55583;53.012;6.556;2023-09-07T03:03:37;16.80;99.90
52743;DHT22;55583;53.012;6.556;2023-09-07T03:06:13;16.80;99.90
52743;DHT22;55583;53.012;6.556;2023-09-07T03:08:42;16.90;99.90
52743;DHT22;55583;53.012;6.556;2023-09-07T03:11:08;16.80;99.90
52743;DHT22;55583;53.012;6.556;2023-09-07T03:13:34;16.70;99.90
52743;DHT22;55583;53.012;6.556;2023-09-07T03:16:00;16.70;99.90
52743;DHT22;55583;53.012;6.556;2023-09-07T03:18:25;16.70;99.90
52743;DHT22;55583;53.012;6.556;2023-09-07T03:20:54;16.60;99.90
52743;DHT22;55583;53.012;6.556;2023-09-07T03:23:20;16.60;99.90
52743;DHT22;55583;53.012;6.556;2023-09-07T03:25:47;16.60;99.90
52743;DHT22;55583;53.012;6.556;2023-09-07T03:28:13;16.50;99.90
52743;DHT22;55583;53.012;6.556;2023-09-07T03:30:39;16.50;99.90
52743;DHT22;55583;53.012;6.556;2023-09-07T03:33:05;16.50;99.90
52743;DHT22;55583;53.012;6.556;2023-09-07T03:35:31;16.40;99.90
52743;DHT22;55583;53.012;6.556;2023-09-07T03:37:57;16.40;99.90
52743;DHT22;55583;53.012;6.556;2023-09-07T03:40:22;16.40;99.90
52743;DHT22;55583;53.012;6.556;2023-09-07T03:42:48;16.40;99.90
52743;DHT22;55583;53.012;6.556;2023-09-07T03:45:14;16.30;99.90
52743;DHT22;55583;53.012;6.556;2023-09-07T03:47:40;16.30;99.90
52743;DHT22;55583;53.012;6.556;2023-09-07T03:50:06;16.30;99.90
52743;DHT22;55583;53.012;6.556;2023-09-07T03:52:31;16.20;99.90
52743;DHT22;55583;53.012;6.556;2023-09-07T03:54:59;16.20;99.90
52743;DHT22;55583;53.012;6.556;2023-09-07T03:57:26;16.20;99.90
52743;DHT22;55583;53.012;6.556;2023-09-07T03:59:51;16.20;99.90
52743;DHT22;55583;53.012;6.556;2023-09-07T04:02:17;16.20;99.90
52743;DHT22;55583;53.012;6.556;2023-09-07T04:04:47;16.10;99.90
52743;DHT22;55583;53.012;6.556;2023-09-07T04:07:13;16.10;99.90
52743;DHT22;55583;53.012;6.556;2023-09-07T04:09:38;16.10;99.90
52743;DHT22;55583;53.012;6.556;2023-09-07T04:12:04;16.10;99.90
52743;DHT22;55583;53.012;6.556;2023-09-07T04:14:30;16.10;99.90
52743;DHT22;55583;53.012;6.556;2023-09-07T04:16:56;16.00;99.90
52743;DHT22;55583;53.012;6.556;2023-09-07T04:19:21;16.00;99.90
52743;DHT22;55583;53.012;6.556;2023-09-07T04:21:47;16.00;99.90
52743;DHT22;55583;53.012;6.556;2023-09-07T04:24:12;15.90;99.90
52743;DHT22;55583;53.012;6.556;2023-09-07T04:26:38;15.90;99.90
52743;DHT22;55583;53.012;6.556;2023-09-07T04:29:04;15.90;99.90
52743;DHT22;55583;53.012;6.556;2023-09-07T04:31:31;15.90;99.90
52743;DHT22;55583;53.012;6.556;2023-09-07T04:33:57;15.80;99.90
52743;DHT22;55583;53.012;6.556;2023-09-07T04:36:22;15.80;99.90
52743;DHT22;55583;53.012;6.556;2023-09-07T04:38:48;15.90;99.90
52743;DHT22;55583;53.012;6.556;2023-09-07T04:41:14;15.80;99.90
52743;DHT22;55583;53.012;6.556;2023-09-07T04:43:42;15.80;99.90
52743;DHT22;55583;53.012;6.556;2023-09-07T04:46:12;15.70;99.90
52743;DHT22;55583;53.012;6.556;2023-09-07T04:48:38;15.70;99.90
52743;DHT22;55583;53.012;6.556;2023-09-07T04:51:05;15.70;99.90
52743;DHT22;55583;53.012;6.556;2023-09-07T04:53:34;15.70;99.90
52743;DHT22;55583;53.012;6.556;2023-09-07T04:56:01;15.60;99.90
52743;DHT22;55583;53.012;6.556;2023-09-07T04:58:27;15.60;99.90
52743;DHT22;55583;53.012;6.556;2023-09-07T05:00:53;15.70;99.90
52743;DHT22;55583;53.012;6.556;2023-09-07T05:03:18;15.60;99.90
52743;DHT22;55583;53.012;6.556;2023-09-07T05:05:44;15.60;99.90
52743;DHT22;55583;53.012;6.556;2023-09-07T05:08:10;15.60;99.90
52743;DHT22;55583;53.012;6.556;2023-09-07T05:10:37;15.60;99.90
52743;DHT22;55583;53.012;6.556;2023-09-07T05:13:03;15.60;99.90
52743;DHT22;55583;53.012;6.556;2023-09-07T05:15:29;15.60;99.90
52743;DHT22;55583;53.012;6.556;2023-09-07T05:17:55;15.60;99.90
52743;DHT22;55583;53.012;6.556;2023-09-07T05:20:21;15.60;99.90
52743;DHT22;55583;53.012;6.556;2023-09-07T05:22:47;15.60;99.90
52743;DHT22;55583;53.012;6.556;2023-09-07T05:25:12;15.60;99.90
52743;DHT22;55583;53.012;6.556;2023-09-07T05:27:38;15.60;99.90
52743;DHT22;55583;53.012;6.556;2023-09-07T05:30:05;15.60;99.90
52743;DHT22;55583;53.012;6.556;2023-09-07T05:32:31;15.60;99.90
52743;DHT22;55583;53.012;6.556;2023-09-07T05:34:57;15.60;99.90
52743;DHT22;55583;53.012;6.556;2023-09-07T05:37:23;15.60;99.90
52743;DHT22;55583;53.012;6.556;2023-09-07T05:39:49;15.60;99.90
52743;DHT22;55583;53.012;6.556;2023-09-07T05:42:15;15.70;99.90
52743;DHT22;55583;53.012;6.556;2023-09-07T05:44:41;15.70;99.90
52743;DHT22;55583;53.012;6.556;2023-09-07T05:47:07;15.70;99.90
52743;DHT22;55583;53.012;6.556;2023-09-07T05:49:32;15.70;99.90
52743;DHT22;55583;53.012;6.556;2023-09-07T05:51:58;15.80;99.90
52743;DHT22;55583;53.012;6.556;2023-09-07T05:54:24;15.80;99.90
52743;DHT22;55583;53.012;6.556;2023-09-07T05:56:49;15.70;99.90
52743;DHT22;55583;53.012;6.556;2023-09-07T05:59:15;15.80;99.90
52743;DHT22;55583;53.012;6.556;2023-09-07T06:01:41;15.90;99.90
52743;DHT22;55583;53.012;6.556;2023-09-07T06:04:07;15.90;99.90
52743;DHT22;55583;53.012;6.556;2023-09-07T06:06:33;15.90;99.90
52743;DHT22;55583;53.012;6.556;2023-09-07T06:08:58;15.90;99.90
52743;DHT22;55583;53.012;6.556;2023-09-07T06:11:25;15.90;99.90
52743;DHT22;55583;53.012;6.556;2023-09-07T06:13:50;16.00;99.90
52743;DHT22;55583;53.012;6.556;2023-09-07T06:16:17;16.10;99.90
52743;DHT22;55583;53.012;6.556;2023-09-07T06:18:42;16.10;99.90
52743;DHT22;55583;53.012;6.556;2023-09-07T06:21:08;16.20;99.90
52743;DHT22;55583;53.012;6.556;2023-09-07T06:23:34;16.30;99.90
52743;DHT22;55583;53.012;6.556;2023-09-07T06:26:00;16.40;99.90
52743;DHT22;55583;53.012;6.556;2023-09-07T06:28:26;16.40;99.90
52743;DHT22;55583;53.012;6.556;2023-09-07T06:30:52;16.40;99.90
52743;DHT22;55583;53.012;6.556;2023-09-07T06:33:17;16.50;99.90
52743;DHT22;55583;53.012;6.556;2023-09-07T06:35:43;16.50;99.90
52743;DHT22;55583;53.012;6.556;2023-09-07T06:38:09;16.50;99.90
52743;DHT22;55583;53.012;6.556;2023-09-07T06:40:34;16.60;99.90
52743;DHT22;55583;53.012;6.556;2023-09-07T06:43:00;16.60;99.90
52743;DHT22;55583;53.012;6.556;2023-09-07T06:45:34;16.60;99.90
52743;DHT22;55583;53.012;6.556;2023-09-07T06:48:00;16.60;99.90
52743;DHT22;55583;53.012;6.556;2023-09-07T06:50:25;16.60;99.90
52743;DHT22;55583;53.012;6.556;2023-09-07T06:52:51;16.70;99.90
52743;DHT22;55583;53.012;6.556;2023-09-07T06:55:17;16.70;99.90
52743;DHT22;55583;53.012;6.556;2023-09-07T06:57:42;16.80;99.90
52743;DHT22;55583;53.012;6.556;2023-09-07T07:00:08;16.80;99.90
52743;DHT22;55583;53.012;6.556;2023-09-07T07:02:34;16.90;99.90
52743;DHT22;55583;53.012;6.556;2023-09-07T07:05:01;16.90;99.90
52743;DHT22;55583;53.012;6.556;2023-09-07T07:07:29;17.00;99.90
52743;DHT22;55583;53.012;6.556;2023-09-07T07:09:55;17.10;99.90
52743;DHT22;55583;53.012;6.556;2023-09-07T07:12:20;17.10;99.90
52743;DHT22;55583;53.012;6.556;2023-09-07T07:14:46;17.20;99.90
52743;DHT22;55583;53.012;6.556;2023-09-07T07:17:12;17.30;99.90
52743;DHT22;55583;53.012;6.556;2023-09-07T07:19:37;17.40;99.90
52743;DHT22;55583;53.012;6.556;2023-09-07T07:22:03;17.60;99.90
52743;DHT22;55583;53.012;6.556;2023-09-07T07:24:29;17.60;99.90
52743;DHT22;55583;53.012;6.556;2023-09-07T07:26:55;17.80;99.90
52743;DHT22;55583;53.012;6.556;2023-09-07T07:29:20;17.80;99.90
52743;DHT22;55583;53.012;6.556;2023-09-07T07:31:46;17.90;99.90
52743;DHT22;55583;53.012;6.556;2023-09-07T07:34:12;18.00;99.90
52743;DHT22;55583;53.012;6.556;2023-09-07T07:36:38;18.10;99.90
52743;DHT22;55583;53.012;6.556;2023-09-07T07:39:05;18.10;99.90
52743;DHT22;55583;53.012;6.556;2023-09-07T07:41:32;18.20;99.90
52743;DHT22;55583;53.012;6.556;2023-09-07T07:43:58;18.30;99.90
52743;DHT22;55583;53.012;6.556;2023-09-07T07:46:24;18.40;99.90
52743;DHT22;55583;53.012;6.556;2023-09-07T07:48:49;18.50;99.90
52743;DHT22;55583;53.012;6.556;2023-09-07T07:51:15;18.50;99.90
52743;DHT22;55583;53.012;6.556;2023-09-07T07:53:41;18.60;99.90
52743;DHT22;55583;53.012;6.556;2023-09-07T07:56:17;18.70;99.90
52743;DHT22;55583;53.012;6.556;2023-09-07T07:58:43;18.90;99.90
52743;DHT22;55583;53.012;6.556;2023-09-07T08:01:18;19.00;99.90
52743;DHT22;55583;53.012;6.556;2023-09-07T08:03:44;19.00;99.90
52743;DHT22;55583;53.012;6.556;2023-09-07T08:06:10;19.10;99.90
52743;DHT22;55583;53.012;6.556;2023-09-07T08:08:37;19.20;99.90
52743;DHT22;55583;53.012;6.556;2023-09-07T08:11:03;19.30;99.90
52743;DHT22;55583;53.012;6.556;2023-09-07T08:13:34;19.40;99.90
52743;DHT22;55583;53.012;6.556;2023-09-07T08:16:04;19.50;99.90
52743;DHT22;55583;53.012;6.556;2023-09-07T08:18:33;19.60;99.90
52743;DHT22;55583;53.012;6.556;2023-09-07T08:20:59;19.90;99.90
52743;DHT22;55583;53.012;6.556;2023-09-07T08:23:25;20.00;99.90
52743;DHT22;55583;53.012;6.556;2023-09-07T08:25:52;20.10;99.90
52743;DHT22;55583;53.012;6.556;2023-09-07T08:28:18;20.20;99.90
52743;DHT22;55583;53.012;6.556;2023-09-07T08:30:44;20.40;99.90
52743;DHT22;55583;53.012;6.556;2023-09-07T08:33:10;20.70;99.90
52743;DHT22;55583;53.012;6.556;2023-09-07T08:35:35;20.90;99.90
52743;DHT22;55583;53.012;6.556;2023-09-07T08:38:03;21.00;99.90
52743;DHT22;55583;53.012;6.556;2023-09-07T08:40:33;21.00;99.90
52743;DHT22;55583;53.012;6.556;2023-09-07T08:43:04;21.10;99.90
52743;DHT22;55583;53.012;6.556;2023-09-07T08:45:33;21.10;99.90
52743;DHT22;55583;53.012;6.556;2023-09-07T08:48:02;21.10;99.90
52743;DHT22;55583;53.012;6.556;2023-09-07T08:50:29;21.30;99.90
52743;DHT22;55583;53.012;6.556;2023-09-07T08:52:55;21.30;99.90
52743;DHT22;55583;53.012;6.556;2023-09-07T08:55:25;21.40;99.90
52743;DHT22;55583;53.012;6.556;2023-09-07T08:57:51;21.40;99.90
52743;DHT22;55583;53.012;6.556;2023-09-07T09:00:17;21.50;99.90
52743;DHT22;55583;53.012;6.556;2023-09-07T09:02:48;21.50;99.90
52743;DHT22;55583;53.012;6.556;2023-09-07T09:05:15;21.50;99.90
52743;DHT22;55583;53.012;6.556;2023-09-07T09:07:41;21.60;99.90
52743;DHT22;55583;53.012;6.556;2023-09-07T09:10:07;21.80;99.90
52743;DHT22;55583;53.012;6.556;2023-09-07T09:12:34;22.00;99.90
52743;DHT22;55583;53.012;6.556;2023-09-07T09:15:00;22.20;99.90
52743;DHT22;55583;53.012;6.556;2023-09-07T09:17:29;22.60;99.90
52743;DHT22;55583;53.012;6.556;2023-09-07T09:19:55;23.10;99.90
52743;DHT22;55583;53.012;6.556;2023-09-07T09:22:21;24.00;99.90
52743;DHT22;55583;53.012;6.556;2023-09-07T09:24:50;24.40;99.90
52743;DHT22;55583;53.012;6.556;2023-09-07T09:27:16;24.40;98.20
52743;DHT22;55583;53.012;6.556;2023-09-07T09:29:42;24.50;98.10
52743;DHT22;55583;53.012;6.556;2023-09-07T09:32:09;24.40;95.70
52743;DHT22;55583;53.012;6.556;2023-09-07T09:34:38;24.30;96.70
52743;DHT22;55583;53.012;6.556;2023-09-07T09:37:04;24.20;96.90
52743;DHT22;55583;53.012;6.556;2023-09-07T09:39:37;24.10;96.90
52743;DHT22;55583;53.012;6.556;2023-09-07T09:42:04;24.20;96.70
52743;DHT22;55583;53.012;6.556;2023-09-07T09:44:30;24.30;97.00
52743;DHT22;55583;53.012;6.556;2023-09-07T09:46:56;24.50;97.70
52743;DHT22;55583;53.012;6.556;2023-09-07T09:49:23;24.80;96.80
52743;DHT22;55583;53.012;6.556;2023-09-07T09:51:49;25.70;97.60
52743;DHT22;55583;53.012;6.556;2023-09-07T09:54:21;27.70;94.90
52743;DHT22;55583;53.012;6.556;2023-09-07T09:56:47;30.20;85.80
52743;DHT22;55583;53.012;6.556;2023-09-07T09:59:14;32.30;71.80
52743;DHT22;55583;53.012;6.556;2023-09-07T10:01:46;33.90;63.30
52743;DHT22;55583;53.012;6.556;2023-09-07T10:04:17;35.40;56.90
52743;DHT22;55583;53.012;6.556;2023-09-07T10:06:58;36.60;54.40
52743;DHT22;55583;53.012;6.556;2023-09-07T10:09:28;37.50;48.60
52743;DHT22;55583;53.012;6.556;2023-09-07T10:11:58;38.00;49.70
52743;DHT22;55583;53.012;6.556;2023-09-07T10:14:25;38.80;49.20
52743;DHT22;55583;53.012;6.556;2023-09-07T10:16:53;39.50;47.20
52743;DHT22;55583;53.012;6.556;2023-09-07T10:19:22;40.20;45.60
52743;DHT22;55583;53.012;6.556;2023-09-07T10:21:49;40.70;45.30
52743;DHT22;55583;53.012;6.556;2023-09-07T10:24:34;41.30;43.70
52743;DHT22;55583;53.012;6.556;2023-09-07T10:27:08;41.80;40.50
52743;DHT22;55583;53.012;6.556;2023-09-07T10:29:43;41.80;42.00
52743;DHT22;55583;53.012;6.556;2023-09-07T10:32:09;42.00;40.30
52743;DHT22;55583;53.012;6.556;2023-09-07T10:34:40;42.50;41.40
52743;DHT22;55583;53.012;6.556;2023-09-07T10:37:13;43.10;41.40
52743;DHT22;55583;53.012;6.556;2023-09-07T10:39:39;43.40;40.10
52743;DHT22;55583;53.012;6.556;2023-09-07T10:42:05;43.30;39.50
52743;DHT22;55583;53.012;6.556;2023-09-07T10:44:31;43.40;39.80
52743;DHT22;55583;53.012;6.556;2023-09-07T10:46:57;43.70;39.40
52743;DHT22;55583;53.012;6.556;2023-09-07T10:49:23;43.90;39.00
52743;DHT22;55583;53.012;6.556;2023-09-07T10:51:49;44.10;38.40
52743;DHT22;55583;53.012;6.556;2023-09-07T10:54:22;44.50;37.80
52743;DHT22;55583;53.012;6.556;2023-09-07T10:56:49;44.80;38.10
52743;DHT22;55583;53.012;6.556;2023-09-07T10:59:15;45.00;38.70
52743;DHT22;55583;53.012;6.556;2023-09-07T11:01:43;45.00;37.60
52743;DHT22;55583;53.012;6.556;2023-09-07T11:04:09;45.10;36.80
52743;DHT22;55583;53.012;6.556;2023-09-07T11:06:37;45.20;37.60
52743;DHT22;55583;53.012;6.556;2023-09-07T11:09:03;45.30;36.90
52743;DHT22;55583;53.012;6.556;2023-09-07T11:11:34;45.50;36.60
52743;DHT22;55583;53.012;6.556;2023-09-07T11:14:04;45.50;36.50
52743;DHT22;55583;53.012;6.556;2023-09-07T11:16:32;45.30;36.30
52743;DHT22;55583;53.012;6.556;2023-09-07T11:19:03;45.30;37.10
52743;DHT22;55583;53.012;6.556;2023-09-07T11:21:30;45.40;36.40
52743;DHT22;55583;53.012;6.556;2023-09-07T11:23:57;45.50;36.80
52743;DHT22;55583;53.012;6.556;2023-09-07T11:26:23;45.70;36.20
52743;DHT22;55583;53.012;6.556;2023-09-07T11:28:48;45.70;36.50
52743;DHT22;55583;53.012;6.556;2023-09-07T11:31:19;45.70;36.40
52743;DHT22;55583;53.012;6.556;2023-09-07T11:33:47;45.80;36.10
52743;DHT22;55583;53.012;6.556;2023-09-07T11:36:12;45.40;35.80
52743;DHT22;55583;53.012;6.556;2023-09-07T11:38:38;45.40;36.30
52743;DHT22;55583;53.012;6.556;2023-09-07T11:41:08;45.50;35.80
52743;DHT22;55583;53.012;6.556;2023-09-07T11:43:33;45.70;36.30
52743;DHT22;55583;53.012;6.556;2023-09-07T11:45:59;46.10;35.90
52743;DHT22;55583;53.012;6.556;2023-09-07T11:48:26;46.10;34.70
52743;DHT22;55583;53.012;6.556;2023-09-07T11:50:52;45.90;34.40
52743;DHT22;55583;53.012;6.556;2023-09-07T11:53:17;45.90;34.90
52743;DHT22;55583;53.012;6.556;2023-09-07T11:55:43;45.80;35.70
52743;DHT22;55583;53.012;6.556;2023-09-07T11:58:09;45.80;34.60
52743;DHT22;55583;53.012;6.556;2023-09-07T12:00:34;45.80;35.30
52743;DHT22;55583;53.012;6.556;2023-09-07T12:03:00;45.70;34.50
52743;DHT22;55583;53.012;6.556;2023-09-07T12:05:26;45.60;33.70
52743;DHT22;55583;53.012;6.556;2023-09-07T12:07:52;45.50;34.10
52743;DHT22;55583;53.012;6.556;2023-09-07T12:10:17;45.30;33.70
52743;DHT22;55583;53.012;6.556;2023-09-07T12:12:43;45.40;33.20
52743;DHT22;55583;53.012;6.556;2023-09-07T12:15:10;45.50;33.80
52743;DHT22;55583;53.012;6.556;2023-09-07T12:17:39;45.60;34.70
52743;DHT22;55583;53.012;6.556;2023-09-07T12:20:05;45.60;34.00
52743;DHT22;55583;53.012;6.556;2023-09-07T12:22:35;45.40;33.70
52743;DHT22;55583;53.012;6.556;2023-09-07T12:25:04;45.50;35.00
52743;DHT22;55583;53.012;6.556;2023-09-07T12:27:33;45.50;34.20
52743;DHT22;55583;53.012;6.556;2023-09-07T12:29:58;45.50;34.20
52743;DHT22;55583;53.012;6.556;2023-09-07T12:32:24;45.30;35.00
52743;DHT22;55583;53.012;6.556;2023-09-07T12:34:50;45.30;34.90
52743;DHT22;55583;53.012;6.556;2023-09-07T12:37:19;44.70;34.80
52743;DHT22;55583;53.012;6.556;2023-09-07T12:39:45;44.50;35.20
52743;DHT22;55583;53.012;6.556;2023-09-07T12:42:10;44.00;34.70
52743;DHT22;55583;53.012;6.556;2023-09-07T12:44:36;43.80;35.20
52743;DHT22;55583;53.012;6.556;2023-09-07T12:47:01;43.60;35.70
52743;DHT22;55583;53.012;6.556;2023-09-07T12:49:27;43.50;35.90
52743;DHT22;55583;53.012;6.556;2023-09-07T12:51:53;43.60;36.50
52743;DHT22;55583;53.012;6.556;2023-09-07T12:54:18;43.60;35.90
52743;DHT22;55583;53.012;6.556;2023-09-07T12:56:44;43.40;35.50
52743;DHT22;55583;53.012;6.556;2023-09-07T12:59:10;43.20;35.60
52743;DHT22;55583;53.012;6.556;2023-09-07T13:01:36;43.00;36.30
52743;DHT22;55583;53.012;6.556;2023-09-07T13:04:02;42.80;37.50
52743;DHT22;55583;53.012;6.556;2023-09-07T13:06:28;42.90;37.80
52743;DHT22;55583;53.012;6.556;2023-09-07T13:08:54;42.90;38.10
52743;DHT22;55583;53.012;6.556;2023-09-07T13:11:19;42.80;37.00
52743;DHT22;55583;53.012;6.556;2023-09-07T13:13:45;42.70;37.80
52743;DHT22;55583;53.012;6.556;2023-09-07T13:16:10;42.70;37.40
52743;DHT22;55583;53.012;6.556;2023-09-07T13:18:37;42.50;36.90
52743;DHT22;55583;53.012;6.556;2023-09-07T13:21:03;42.50;38.00
52743;DHT22;55583;53.012;6.556;2023-09-07T13:23:29;42.40;36.90
52743;DHT22;55583;53.012;6.556;2023-09-07T13:25:55;42.30;37.60
52743;DHT22;55583;53.012;6.556;2023-09-07T13:28:25;42.10;37.60
52743;DHT22;55583;53.012;6.556;2023-09-07T13:30:52;41.90;38.00
52743;DHT22;55583;53.012;6.556;2023-09-07T13:33:17;42.00;38.10
52743;DHT22;55583;53.012;6.556;2023-09-07T13:35:43;42.10;38.60
52743;DHT22;55583;53.012;6.556;2023-09-07T13:38:09;42.00;38.10
52743;DHT22;55583;53.012;6.556;2023-09-07T13:40:35;41.90;37.20
52743;DHT22;55583;53.012;6.556;2023-09-07T13:43:01;41.80;38.10
52743;DHT22;55583;53.012;6.556;2023-09-07T13:45:26;41.80;37.70
52743;DHT22;55583;53.012;6.556;2023-09-07T13:47:54;41.70;37.60
52743;DHT22;55583;53.012;6.556;2023-09-07T13:50:20;41.60;37.20
52743;DHT22;55583;53.012;6.556;2023-09-07T13:52:45;41.50;38.10
52743;DHT22;55583;53.012;6.556;2023-09-07T13:55:11;41.40;37.70
52743;DHT22;55583;53.012;6.556;2023-09-07T13:57:37;41.40;37.80
52743;DHT22;55583;53.012;6.556;2023-09-07T14:00:03;41.50;37.90
52743;DHT22;55583;53.012;6.556;2023-09-07T14:02:31;41.20;37.70
52743;DHT22;55583;53.012;6.556;2023-09-07T14:04:58;41.10;37.70
52743;DHT22;55583;53.012;6.556;2023-09-07T14:07:23;40.90;37.40
52743;DHT22;55583;53.012;6.556;2023-09-07T14:09:52;40.80;37.70
52743;DHT22;55583;53.012;6.556;2023-09-07T14:12:17;40.90;38.40
52743;DHT22;55583;53.012;6.556;2023-09-07T14:14:43;41.00;38.00
52743;DHT22;55583;53.012;6.556;2023-09-07T14:17:08;41.20;38.60
52743;DHT22;55583;53.012;6.556;2023-09-07T14:19:34;41.30;38.40
52743;DHT22;55583;53.012;6.556;2023-09-07T14:22:00;41.20;38.30
52743;DHT22;55583;53.012;6.556;2023-09-07T14:24:25;41.20;38.60
52743;DHT22;55583;53.012;6.556;2023-09-07T14:26:51;41.10;37.90
52743;DHT22;55583;53.012;6.556;2023-09-07T14:29:17;41.20;38.70
52743;DHT22;55583;53.012;6.556;2023-09-07T14:31:43;41.20;38.40
52743;DHT22;55583;53.012;6.556;2023-09-07T14:34:12;41.00;38.80
52743;DHT22;55583;53.012;6.556;2023-09-07T14:36:38;40.90;38.90
52743;DHT22;55583;53.012;6.556;2023-09-07T14:39:08;40.80;38.90
52743;DHT22;55583;53.012;6.556;2023-09-07T14:41:35;40.70;38.00
52743;DHT22;55583;53.012;6.556;2023-09-07T14:44:00;40.40;38.60
52743;DHT22;55583;53.012;6.556;2023-09-07T14:46:26;40.20;38.60
52743;DHT22;55583;53.012;6.556;2023-09-07T14:48:52;40.10;38.60
52743;DHT22;55583;53.012;6.556;2023-09-07T14:51:18;40.20;39.30
52743;DHT22;55583;53.012;6.556;2023-09-07T14:53:44;40.20;38.40
52743;DHT22;55583;53.012;6.556;2023-09-07T14:56:10;40.20;39.90
52743;DHT22;55583;53.012;6.556;2023-09-07T14:58:36;40.30;38.80
52743;DHT22;55583;53.012;6.556;2023-09-07T15:01:02;40.10;38.60
52743;DHT22;55583;53.012;6.556;2023-09-07T15:03:29;40.10;39.20
52743;DHT22;55583;53.012;6.556;2023-09-07T15:05:54;40.20;39.40
52743;DHT22;55583;53.012;6.556;2023-09-07T15:08:20;40.20;38.60
52743;DHT22;55583;53.012;6.556;2023-09-07T15:10:46;40.10;38.80
52743;DHT22;55583;53.012;6.556;2023-09-07T15:13:11;40.00;38.50
52743;DHT22;55583;53.012;6.556;2023-09-07T15:15:37;39.90;38.90
52743;DHT22;55583;53.012;6.556;2023-09-07T15:18:06;39.70;39.00
52743;DHT22;55583;53.012;6.556;2023-09-07T15:20:31;39.70;38.70
52743;DHT22;55583;53.012;6.556;2023-09-07T15:22:57;39.80;39.80
52743;DHT22;55583;53.012;6.556;2023-09-07T15:25:23;39.70;39.60
52743;DHT22;55583;53.012;6.556;2023-09-07T15:27:49;39.60;40.30
52743;DHT22;55583;53.012;6.556;2023-09-07T15:30:15;39.40;39.80
52743;DHT22;55583;53.012;6.556;2023-09-07T15:32:40;39.30;40.20